Time;durP1;ratioP1;P1;durP2;ratioP2;P2;SDS_P1;SDS_P2;PMS_P1;PMS_P2;Temp;Humidity;BMP_temperature;BMP_pressure;BME280_temperature;BME280_humidity;BME280_pressure;Samples;Min_cycle;Max_cycle;Signal;HPM_P1;HPM_P2
2023/08/26 00:02:36;;;;;;;11.98;6.85;;;;;;;-145.68;70.08;72356.66;10498146;28;20297;-65
2023/08/26 00:07:37;;;;;;;9.63;6.22;;;;;;;-145.68;69.63;72340.66;10498395;28;20198;-65
2023/08/26 00:12:37;;;;;;;8.00;6.05;;;;;;;-145.68;70.19;72338.66;10497180;28;20235;-65
2023/08/26 00:17:38;;;;;;;6.90;5.80;;;;;;;-145.68;70.10;72334.66;10497744;28;20244;-65
2023/08/26 00:22:38;;;;;;;8.48;5.43;;;;;;;-145.68;69.77;72330.66;10497223;28;20226;-64
2023/08/26 00:27:39;;;;;;;6.75;5.40;;;;;;;-145.68;70.60;72324.69;10497589;28;20191;-65
2023/08/26 00:32:39;;;;;;;6.28;5.30;;;;;;;-145.68;70.07;72308.69;10479187;28;20796;-65
2023/08/26 00:37:39;;;;;;;6.07;5.05;;;;;;;-145.68;69.48;72302.69;10496897;28;20559;-64
2023/08/26 00:42:41;;;;;;;6.03;4.90;;;;;;;-145.68;69.26;72292.72;10478952;28;20234;-65
2023/08/26 00:47:42;;;;;;;5.78;4.32;;;;;;;-145.68;68.15;72264.72;10478471;28;20661;-65
2023/08/26 00:52:43;;;;;;;8.45;4.45;;;;;;;-145.68;67.04;72224.78;10478613;28;20289;-65
2023/08/26 00:57:43;;;;;;;5.13;4.15;;;;;;;-145.68;67.19;72224.78;10478074;28;21397;-64
2023/08/26 01:02:44;;;;;;;5.85;4.53;;;;;;;-145.68;65.86;72202.78;10477906;28;20607;-66
2023/08/26 01:07:44;;;;;;;7.38;4.50;;;;;;;-145.68;65.93;72218.78;10477913;28;20196;-65
2023/08/26 01:13:01;;;;;;;4.40;4.00;;;;;;;-145.68;65.78;72204.78;10462564;22;20245;-69
2023/08/26 01:18:05;;;;;;;9.30;3.97;;;;;;;-145.68;65.36;72200.78;10393764;28;20192;-69
2023/08/26 01:23:07;;;;;;;4.13;3.63;;;;;;;-145.68;64.90;72186.81;10395657;28;20683;-69
2023/08/26 01:28:07;;;;;;;5.40;3.85;;;;;;;-145.68;64.48;72178.81;10394316;28;20200;-68
2023/08/26 01:33:17;;;;;;;5.28;3.83;;;;;;;-145.68;63.70;72156.84;10395004;28;20274;-69
2023/08/26 01:38:17;;;;;;;6.13;3.70;;;;;;;-145.68;63.75;72158.84;10394716;28;20612;-69
2023/08/26 01:43:19;;;;;;;6.40;4.03;;;;;;;-145.68;63.53;72152.84;10411557;28;20220;-69
2023/08/26 01:48:20;;;;;;;7.18;4.13;;;;;;;-145.68;63.32;72140.84;10411893;28;20201;-68
2023/08/26 01:53:20;;;;;;;6.65;3.97;;;;;;;-145.68;63.39;72128.84;10411497;28;20285;-69
2023/08/26 01:58:21;;;;;;;7.47;4.32;;;;;;;-145.68;63.94;72140.84;10393801;28;20665;-68
2023/08/26 02:03:22;;;;;;;5.72;4.10;;;;;;;-145.68;63.41;72132.84;10393920;28;20224;-69
2023/08/26 02:08:22;;;;;;;4.78;3.78;;;;;;;-145.68;63.43;72120.88;10410209;28;20201;-69
2023/08/26 02:13:24;;;;;;;5.18;4.47;;;;;;;-145.68;65.41;72144.84;10417157;28;20231;-69
2023/08/26 02:18:25;;;;;;;5.55;4.10;;;;;;;-145.68;67.04;72160.81;10434598;28;20291;-69
2023/08/26 02:23:25;;;;;;;7.20;3.92;;;;;;;-145.68;68.64;72186.81;10451045;28;20697;-68
2023/08/26 02:28:26;;;;;;;7.70;4.43;;;;;;;-145.68;68.96;72186.81;10434431;28;20200;-69
2023/08/26 02:33:27;;;;;;;6.97;4.05;;;;;;;-145.68;70.02;72212.78;10450685;28;20735;-68
2023/08/26 02:38:27;;;;;;;7.22;3.90;;;;;;;-145.68;70.30;72216.78;10439029;28;20245;-68
2023/08/26 02:43:28;;;;;;;4.90;4.20;;;;;;;-145.68;70.11;72218.78;10459952;28;20223;-69
2023/08/26 02:48:29;;;;;;;5.43;4.10;;;;;;;-145.68;70.21;72224.78;10442412;28;20199;-69
2023/08/26 02:53:30;;;;;;;7.03;3.78;;;;;;;-145.68;70.34;72234.75;10441802;28;20230;-69
2023/08/26 02:58:31;;;;;;;5.35;4.38;;;;;;;-145.68;71.13;72238.75;10442298;28;20184;-69
2023/08/26 03:03:32;;;;;;;4.30;3.90;;;;;;;-145.68;71.54;72274.72;10471423;28;20211;-69
2023/08/26 03:08:32;;;;;;;4.88;3.80;;;;;;;-145.68;71.31;72270.72;10500551;28;20206;-69
2023/08/26 03:13:32;;;;;;;11.50;4.30;;;;;;;-145.68;70.07;72244.75;10500222;28;20227;-67
2023/08/26 03:18:33;;;;;;;5.85;3.60;;;;;;;-145.68;70.38;72258.75;10499933;28;20188;-69
2023/08/26 03:23:34;;;;;;;6.88;3.90;;;;;;;-145.68;69.13;72242.75;10481906;28;20682;-67
2023/08/26 03:28:35;;;;;;;10.10;4.18;;;;;;;-145.68;68.10;72226.75;10481465;28;20222;-68
2023/08/26 03:33:40;;;;;;;5.68;4.45;;;;;;;-145.68;67.68;72210.78;10498757;28;20253;-68
2023/08/26 03:38:40;;;;;;;6.80;3.80;;;;;;;-145.68;67.93;72220.78;10499031;28;20665;-68
2023/08/26 03:43:40;;;;;;;5.22;4.20;;;;;;;-145.68;68.53;72230.75;10480732;28;20570;-68
2023/08/26 03:48:41;;;;;;;10.23;4.32;;;;;;;-145.68;69.34;72244.75;10480491;28;20214;-68
2023/08/26 03:53:41;;;;;;;5.07;3.92;;;;;;;-145.68;71.30;72246.75;10498749;28;20261;-68
2023/08/26 03:58:42;;;;;;;6.13;4.38;;;;;;;-145.68;77.27;72306.69;10498589;28;20270;-69
2023/08/26 04:03:42;;;;;;;10.02;4.80;;;;;;;-145.68;82.43;72336.66;10498075;28;20233;-67
2023/08/26 04:08:42;;;;;;;7.47;4.57;;;;;;;-145.68;91.69;72392.63;10498283;28;20180;-66
2023/08/26 04:13:45;;;;;;;10.52;4.70;;;;;;;-145.68;98.19;72420.59;10480003;28;20289;-65
2023/08/26 04:18:46;;;;;;;8.98;5.70;;;;;;;-145.68;100.00;72468.56;10497993;28;20192;-66
2023/08/26 04:23:46;;;;;;;9.50;5.20;;;;;;;-145.68;100.00;72488.53;10479786;28;20215;-66
2023/08/26 04:28:47;;;;;;;10.65;5.30;;;;;;;-145.68;100.00;72512.50;10479326;28;20191;-66
2023/08/26 04:33:47;;;;;;;9.00;5.80;;;;;;;-145.68;100.00;72528.50;10497402;28;20195;-66
2023/08/26 04:38:47;;;;;;;9.20;5.45;;;;;;;-145.68;100.00;72552.47;10497604;28;20190;-66
2023/08/26 04:43:48;;;;;;;8.38;5.28;;;;;;;-145.68;100.00;72578.47;10485635;28;20214;-64
2023/08/26 04:48:49;;;;;;;8.18;5.90;;;;;;;-145.68;100.00;72624.41;10484178;28;20673;-66
2023/08/26 04:53:51;;;;;;;9.27;6.90;;;;;;;-145.68;100.00;72668.38;10478474;28;20207;-64
2023/08/26 04:58:52;;;;;;;14.23;6.78;;;;;;;-145.68;100.00;72696.34;10478470;28;20671;-66
2023/08/26 05:03:52;;;;;;;10.35;7.93;;;;;;;-145.68;100.00;72732.34;10495120;28;20210;-65
2023/08/26 05:08:53;;;;;;;10.73;7.53;;;;;;;-145.68;100.00;72756.31;10495904;28;20195;-65
2023/08/26 05:13:54;;;;;;;15.13;8.45;;;;;;;-145.68;100.00;72778.28;10451104;28;20231;-67
2023/08/26 05:18:55;;;;;;;14.48;9.20;;;;;;;-145.68;100.00;72794.28;10471697;28;20199;-67
2023/08/26 05:23:55;;;;;;;11.05;8.52;;;;;;;-145.68;100.00;72808.28;10495248;28;20308;-66
2023/08/26 05:28:56;;;;;;;14.40;8.48;;;;;;;-145.68;100.00;72810.28;10477080;28;20191;-67
2023/08/26 05:33:57;;;;;;;15.55;8.52;;;;;;;-145.68;100.00;72816.25;10477153;28;20195;-69
2023/08/26 05:38:58;;;;;;;10.65;7.68;;;;;;;-145.68;100.00;72830.25;10477018;28;20731;-69
2023/08/26 05:43:58;;;;;;;10.90;7.20;;;;;;;-145.68;100.00;72816.25;10476646;28;20737;-68
2023/08/26 05:48:58;;;;;;;10.70;7.13;;;;;;;-145.68;100.00;72810.28;10476743;28;20195;-69
2023/08/26 05:53:59;;;;;;;12.10;8.63;;;;;;;-145.68;100.00;72814.28;10476213;28;20199;-68
2023/08/26 05:58:59;;;;;;;16.33;9.55;;;;;;;-145.68;100.00;72830.25;10476568;28;20189;-68
2023/08/26 06:04:00;;;;;;;10.55;7.97;;;;;;;-145.68;100.00;72826.25;10463571;28;20206;-67
2023/08/26 06:09:02;;;;;;;10.00;7.85;;;;;;;-145.68;100.00;72808.28;10457468;28;20197;-68
2023/08/26 06:14:04;;;;;;;8.80;6.57;;;;;;;-145.68;100.00;72782.28;10451541;28;20224;-69
2023/08/26 06:19:05;;;;;;;8.25;6.43;;;;;;;-145.68;100.00;72814.28;10452395;28;20200;-70
2023/08/26 06:24:05;;;;;;;11.10;6.40;;;;;;;-145.68;100.00;72806.28;10434341;28;20219;-70
2023/08/26 06:29:06;;;;;;;9.48;5.80;;;;;;;-145.68;100.00;72804.28;10434402;28;20565;-71
2023/08/26 06:34:06;;;;;;;11.75;4.90;;;;;;;-145.68;100.00;72766.31;10436917;28;20641;-70
2023/08/26 06:39:08;;;;;;;7.18;4.68;;;;;;;-145.68;100.00;72772.31;10453496;28;20228;-70
2023/08/26 06:44:09;;;;;;;6.15;4.63;;;;;;;-145.68;100.00;72758.31;10446629;28;20211;-71
2023/08/26 06:49:10;;;;;;;7.68;4.72;;;;;;;-145.68;100.00;72752.31;10434161;28;20305;-70
2023/08/26 06:54:10;;;;;;;9.02;4.45;;;;;;;-145.68;100.00;72758.31;10433625;28;20230;-70
2023/08/26 06:59:11;;;;;;;4.50;3.80;;;;;;;-145.68;100.00;72768.31;10450984;28;21076;-70
2023/08/26 07:04:12;;;;;;;8.27;4.60;;;;;;;-145.68;100.00;72750.31;10488567;28;20230;-69
2023/08/26 07:09:12;;;;;;;4.95;3.53;;;;;;;-145.68;100.00;72734.31;10489634;28;20195;-68
2023/08/26 07:14:12;;;;;;;4.80;4.07;;;;;;;-145.68;100.00;72732.34;10506223;22;20806;-66
2023/08/26 07:19:13;;;;;;;5.00;3.58;;;;;;;-145.68;100.00;72678.38;10488133;28;20285;-66
2023/08/26 07:24:15;;;;;;;4.20;3.20;;;;;;;-145.68;100.00;72656.41;10489973;28;20234;-68
2023/08/26 07:29:15;;;;;;;5.18;2.85;;;;;;;-145.68;100.00;72634.41;10496026;28;20249;-66
2023/08/26 07:34:16;;;;;;;4.88;2.50;;;;;;;-145.68;100.00;72610.44;10496009;28;20265;-67
2023/08/26 07:39:16;;;;;;;4.13;2.65;;;;;;;-145.68;100.00;72584.44;10496067;28;20293;-67
2023/08/26 07:44:16;;;;;;;3.55;2.30;;;;;;;-145.68;100.00;72540.50;10495620;28;20230;-66
2023/08/26 07:49:17;;;;;;;2.88;2.47;;;;;;;-145.68;100.00;72506.50;10494219;28;20207;-67
2023/08/26 07:54:17;;;;;;;2.45;2.25;;;;;;;-145.68;100.00;72462.56;10495465;28;20211;-67
2023/08/26 07:59:17;;;;;;;4.43;2.40;;;;;;;-145.68;100.00;72402.59;10494932;28;20619;-67
2023/08/26 08:04:18;;;;;;;7.05;2.22;;;;;;;-145.68;100.00;72396.63;10494173;28;20277;-66
2023/08/26 08:09:18;;;;;;;2.05;1.88;;;;;;;-145.68;100.00;72302.69;10444553;28;20183;-65
2023/08/26 08:14:18;;;;;;;2.63;2.25;;;;;;;-145.68;97.90;72296.69;10470800;28;20224;-65
2023/08/26 08:19:19;;;;;;;5.28;2.00;;;;;;;-145.68;99.36;72312.69;10473751;28;20191;-65
2023/08/26 08:24:19;;;;;;;1.90;1.67;;;;;;;-145.68;95.46;72328.69;10458088;28;20597;-65
2023/08/26 08:29:20;;;;;;;3.42;1.60;;;;;;;-145.68;91.58;72336.66;10484337;28;20191;-64
2023/08/26 08:34:20;;;;;;;2.17;1.60;;;;;;;-145.68;84.57;72320.69;10467128;28;20212;-66
2023/08/26 08:39:20;;;;;;;2.25;2.03;;;;;;;-145.68;85.14;72298.69;10469817;28;20198;-66
2023/08/26 08:44:22;;;;;;;2.47;2.15;;;;;;;-145.68;79.16;72290.72;10495408;28;20711;-66
2023/08/26 08:49:23;;;;;;;4.90;2.20;;;;;;;-145.68;79.12;72246.75;10492231;28;20196;-66
2023/08/26 08:54:27;;;;;;;4.65;2.42;;;;;;;-145.68;76.37;72258.75;10489144;28;20203;-66
2023/08/26 08:59:28;;;;;;;3.92;2.42;;;;;;;-145.68;75.34;72212.78;10474358;28;20187;-67
2023/08/26 09:04:28;;;;;;;3.17;2.33;;;;;;;-145.68;73.34;72228.75;10457632;28;20226;-65
2023/08/26 09:09:30;;;;;;;4.63;2.55;;;;;;;-145.68;76.58;72228.75;10448657;28;20202;-65
2023/08/26 09:14:30;;;;;;;4.70;2.55;;;;;;;-145.68;78.79;72304.69;10477311;28;20238;-66
2023/08/26 09:19:31;;;;;;;3.50;2.83;;;;;;;-145.68;78.76;72160.81;10459661;28;20188;-66
2023/08/26 09:24:31;;;;;;;5.75;2.47;;;;;;;-145.68;70.29;72098.88;10469577;28;20705;-66
2023/08/26 09:29:31;;;;;;;2.58;2.05;;;;;;;-145.68;69.01;72116.88;10471632;28;20195;-64
2023/08/26 09:34:33;;;;;;;5.80;3.00;;;;;;;-145.68;70.98;72206.78;10472413;28;20231;-67
2023/08/26 09:39:33;;;;;;;6.15;2.83;;;;;;;-145.68;65.19;72038.94;10467142;28;20187;-65
2023/08/26 09:44:33;;;;;;;3.60;2.60;;;;;;;-145.68;66.30;72106.88;10454099;28;20219;-66
2023/08/26 09:49:34;;;;;;;3.55;2.72;;;;;;;-145.68;67.75;72168.81;10465773;28;20192;-65
2023/08/26 09:54:35;;;;;;;5.22;3.13;;;;;;;-145.68;64.56;72168.81;10465113;28;20210;-66
2023/08/26 09:59:35;;;;;;;4.88;3.03;;;;;;;-145.68;62.74;72052.94;10490803;28;20571;-65
2023/08/26 10:04:37;;;;;;;6.55;2.92;;;;;;;-145.68;60.56;71981.00;10492145;28;20219;-65
2023/08/26 10:09:50;;;;;;;4.18;2.90;;;;;;;-145.68;60.25;72038.94;10474634;28;20187;-66
2023/08/26 10:14:53;;;;;;;7.68;3.10;;;;;;;-145.68;58.92;71945.03;10492174;28;20240;-66
2023/08/26 10:19:54;;;;;;;4.90;2.78;;;;;;;-145.68;59.27;71941.03;10465164;28;20244;-65
2023/08/26 10:24:55;;;;;;;8.32;3.15;;;;;;;-145.68;53.65;71781.19;10491243;28;20219;-65
2023/08/26 10:29:55;;;;;;;8.25;2.83;;;;;;;-145.68;53.45;71879.09;10475655;28;20561;-64
2023/08/26 10:34:59;;;;;;;9.05;2.63;;;;;;;-145.68;52.69;71745.25;10493898;28;20570;-65
2023/08/26 10:40:12;;;;;;;5.00;2.80;;;;;;;-145.68;50.40;71669.31;10493488;28;20804;-64
2023/08/26 10:45:14;;;;;;;8.00;3.03;;;;;;;-145.68;52.71;71987.00;10493238;28;21007;-64
2023/08/26 10:50:21;;;;;;;6.10;2.90;;;;;;;-145.68;52.52;71933.03;10493235;28;20203;-66
2023/08/26 10:55:27;;;;;;;5.75;2.70;;;;;;;-145.68;49.74;71707.28;10493483;28;20207;-65
2023/08/26 11:00:27;;;;;;;4.50;2.30;;;;;;;-145.68;48.54;71557.44;10498834;28;20191;-65
2023/08/26 11:05:28;;;;;;;7.07;2.20;;;;;;;-145.68;47.82;71523.47;10500609;28;20612;-63
2023/08/26 11:10:30;;;;;;;3.25;2.55;;;;;;;-145.68;46.98;71519.47;10500683;28;20187;-65
2023/08/26 11:15:34;;;;;;;8.63;2.58;;;;;;;-145.68;49.39;71705.28;10500162;28;20227;-67
2023/08/26 11:20:36;;;;;;;4.07;2.40;;;;;;;-145.68;48.00;71659.34;10500422;28;20195;-66
2023/08/26 11:25:37;;;;;;;6.55;2.53;;;;;;;-145.68;47.92;71653.34;10496175;28;20689;-65
2023/08/26 11:30:40;;;;;;;7.25;2.67;;;;;;;-145.68;50.35;71857.13;10458425;28;20184;-64
2023/08/26 11:35:45;;;;;;;8.32;2.85;;;;;;;-145.68;50.16;71829.16;10466234;28;20242;-65
2023/08/26 11:40:47;;;;;;;6.00;2.60;;;;;;;-145.68;52.16;71891.09;10461653;28;20203;-66
2023/08/26 11:45:50;;;;;;;7.88;2.90;;;;;;;-145.68;49.50;71907.06;10457242;28;20215;-65
2023/08/26 11:50:51;;;;;;;5.78;2.45;;;;;;;-145.68;47.80;71721.25;10457279;28;20184;-66
2023/08/26 11:55:52;;;;;;;7.75;2.80;;;;;;;-145.68;46.59;71653.34;10439231;28;20587;-66
2023/08/26 12:00:54;;;;;;;7.10;2.20;;;;;;;-145.68;41.98;71269.75;10456764;28;20192;-66
2023/08/26 12:05:55;;;;;;;7.13;2.40;;;;;;;-145.68;38.73;71177.88;10456511;28;20674;-64
2023/08/26 12:10:57;;;;;;;6.75;2.30;;;;;;;-145.68;39.12;71323.69;10455749;28;20276;-64
2023/08/26 12:15:57;;;;;;;7.90;2.45;;;;;;;-145.68;39.01;71333.69;10456174;28;20827;-64
2023/08/26 12:20:58;;;;;;;9.50;2.47;;;;;;;-145.68;39.28;71329.69;10456029;28;20192;-64
2023/08/26 12:25:58;;;;;;;8.95;2.42;;;;;;;-145.68;38.43;71219.81;10455675;28;20224;-64
2023/08/26 12:30:58;;;;;;;4.78;2.33;;;;;;;-145.68;36.26;70968.13;10456967;28;20666;-65
2023/08/26 12:35:59;;;;;;;6.97;2.63;;;;;;;-145.68;35.96;70862.25;10463449;28;20183;-66
2023/08/26 12:41:01;;;;;;;6.13;2.13;;;;;;;-145.68;35.17;70792.34;10483934;28;20425;-66
2023/08/26 12:46:03;;;;;;;7.30;2.72;;;;;;;-145.68;35.63;71026.06;10475177;28;20231;-66
2023/08/26 12:51:03;;;;;;;5.75;2.42;;;;;;;-145.68;38.08;71277.75;10472159;28;20215;-66
2023/08/26 12:56:03;;;;;;;5.57;2.30;;;;;;;-145.68;40.96;71635.34;10454827;28;20245;-65
2023/08/26 13:01:04;;;;;;;6.90;2.55;;;;;;;-145.68;40.80;71513.50;10460445;28;20198;-66
2023/08/26 13:06:04;;;;;;;6.43;2.30;;;;;;;-145.68;39.21;71443.56;10463224;28;20281;-66
2023/08/26 13:11:05;;;;;;;8.90;2.83;;;;;;;-145.68;36.81;71287.75;10436270;28;20199;-66
2023/08/26 13:16:05;;;;;;;10.75;2.50;;;;;;;-145.68;35.68;71074.00;10472827;23;20292;-70
2023/08/26 13:21:06;;;;;;;10.88;2.60;;;;;;;-145.68;38.38;71313.72;10452570;28;20549;-69
2023/08/26 13:26:06;;;;;;;10.53;2.53;;;;;;;-145.68;37.87;71241.78;10453791;28;20223;-69
2023/08/26 13:31:07;;;;;;;8.00;2.60;;;;;;;-145.68;39.54;71501.50;10453928;28;20450;-70
2023/08/26 13:36:07;;;;;;;12.95;2.72;;;;;;;-145.68;37.20;71351.66;10453770;28;20220;-71
2023/08/26 13:41:07;;;;;;;6.00;2.05;;;;;;;-145.68;38.77;71471.53;10453391;28;20226;-70
2023/08/26 13:46:08;;;;;;;8.25;2.30;;;;;;;-145.68;37.07;71261.78;10453357;28;20220;-70
2023/08/26 13:51:08;;;;;;;5.13;2.72;;;;;;;-145.68;38.27;71433.56;10452881;28;20282;-68
2023/08/26 13:56:09;;;;;;;10.03;2.60;;;;;;;-145.68;38.67;71425.59;10453000;28;20287;-67
2023/08/26 14:01:09;;;;;;;8.77;2.95;;;;;;;-145.68;38.67;71433.56;10452960;28;20446;-69
2023/08/26 14:06:09;;;;;;;11.20;2.80;;;;;;;-145.68;38.00;71457.56;10452386;28;20234;-70
2023/08/26 14:11:10;;;;;;;6.53;2.67;;;;;;;-145.68;40.69;71683.31;10452787;28;20192;-70
2023/08/26 14:16:10;;;;;;;8.02;2.80;;;;;;;-145.68;40.34;71653.34;10452100;28;20234;-69
2023/08/26 14:21:11;;;;;;;6.50;2.53;;;;;;;-145.68;41.94;71699.28;10452509;28;20533;-69
2023/08/26 14:26:11;;;;;;;7.80;2.20;;;;;;;-145.68;40.37;71623.38;10452162;28;20253;-70
2023/08/26 14:31:11;;;;;;;6.70;2.80;;;;;;;-145.68;39.84;71629.38;10452158;28;20612;-70
2023/08/26 14:36:12;;;;;;;7.90;2.63;;;;;;;-145.68;40.93;71753.22;10459939;28;20226;-69
2023/08/26 14:41:12;;;;;;;13.45;3.08;;;;;;;-145.68;40.94;71779.19;10460275;28;20191;-68
2023/08/26 14:46:13;;;;;;;5.78;2.28;;;;;;;-145.68;41.56;71747.25;10460470;28;20223;-69
2023/08/26 14:51:13;;;;;;;7.13;2.35;;;;;;;-145.68;41.81;71773.22;10459955;28;20693;-69
2023/08/26 14:56:14;;;;;;;9.45;2.45;;;;;;;-145.68;41.76;71855.13;10459943;28;20208;-68
2023/08/26 15:01:14;;;;;;;6.25;2.55;;;;;;;-145.68;43.30;71935.03;10459788;28;20287;-69
2023/08/26 15:06:14;;;;;;;16.30;3.03;;;;;;;-145.68;43.65;71961.03;10459398;28;20235;-69
2023/08/26 15:11:15;;;;;;;9.55;2.38;;;;;;;-145.68;43.66;71907.06;10459386;28;20200;-69
2023/08/26 15:16:16;;;;;;;4.78;2.47;;;;;;;-145.68;43.03;71887.09;10458871;28;20235;-69
2023/08/26 15:21:18;;;;;;;12.18;2.88;;;;;;;-145.68;43.47;71809.16;10459034;28;20227;-69
2023/08/26 15:26:18;;;;;;;9.38;2.45;;;;;;;-145.68;42.67;71787.19;10458558;28;20224;-69
2023/08/26 15:31:19;;;;;;;9.07;2.53;;;;;;;-145.68;42.97;71737.25;10458642;28;20196;-69
2023/08/26 15:36:19;;;;;;;11.57;2.42;;;;;;;-145.68;43.58;71737.25;10458736;28;20754;-69
2023/08/26 15:41:20;;;;;;;11.65;2.70;;;;;;;-145.68;41.67;71693.28;10458102;28;20187;-69
2023/08/26 15:46:20;;;;;;;8.80;3.08;;;;;;;-145.68;42.04;71717.28;10457064;28;20216;-69
2023/08/26 15:51:21;;;;;;;11.25;2.88;;;;;;;-145.68;40.88;71623.38;10457813;28;20198;-69
2023/08/26 15:56:21;;;;;;;11.30;2.15;;;;;;;-145.68;38.91;71467.53;10457594;28;20208;-69
2023/08/26 16:01:27;;;;;;;9.27;2.58;;;;;;;-145.68;40.24;71559.44;10459857;28;20175;-70
2023/08/26 16:06:28;;;;;;;13.88;3.22;;;;;;;-145.68;40.82;71621.38;10456975;28;20733;-70
2023/08/26 16:11:30;;;;;;;6.80;2.17;;;;;;;-145.68;42.42;71667.31;10456954;28;20202;-69
2023/08/26 16:16:31;;;;;;;14.02;2.75;;;;;;;-145.68;41.82;71701.28;10456326;28;20259;-69
2023/08/26 16:21:31;;;;;;;13.13;2.80;;;;;;;-145.68;43.09;71771.22;10456502;28;20216;-69
2023/08/26 16:26:32;;;;;;;18.35;3.00;;;;;;;-145.68;43.92;71787.19;10456184;28;20207;-70
2023/08/26 16:31:32;;;;;;;12.23;3.63;;;;;;;-145.68;44.22;71831.16;10456088;28;20188;-69
2023/08/26 16:36:32;;;;;;;13.30;3.15;;;;;;;-145.68;45.38;71889.09;10455886;28;20215;-70
2023/08/26 16:41:33;;;;;;;9.68;2.47;;;;;;;-145.68;47.57;71953.03;10455519;28;20680;-69
2023/08/26 16:46:33;;;;;;;11.40;2.97;;;;;;;-145.68;48.22;71925.06;10455320;28;20546;-69
2023/08/26 16:51:34;;;;;;;9.63;3.38;;;;;;;-145.68;50.03;72002.97;10455344;28;20192;-69
2023/08/26 16:56:34;;;;;;;7.03;3.13;;;;;;;-145.68;51.78;72040.94;10455163;28;20241;-69
2023/08/26 17:01:35;;;;;;;9.55;3.80;;;;;;;-145.68;54.21;72092.91;10454743;28;20210;-70
2023/08/26 17:06:35;;;;;;;7.57;3.33;;;;;;;-145.68;55.08;72152.84;10454745;28;20294;-69
2023/08/26 17:11:35;;;;;;;7.60;3.30;;;;;;;-145.68;55.89;72190.81;10454401;28;20657;-70
2023/08/26 17:16:36;;;;;;;6.20;3.17;;;;;;;-145.68;57.29;72228.75;10454307;28;20297;-71
2023/08/26 17:21:36;;;;;;;5.03;2.83;;;;;;;-145.68;57.81;72266.72;10454126;28;20963;-71
2023/08/26 17:26:37;;;;;;;8.00;2.97;;;;;;;-145.68;57.86;72296.69;10453945;28;20582;-70
2023/08/26 17:31:37;;;;;;;5.63;3.20;;;;;;;-145.68;57.88;72310.69;10453994;28;20188;-69
2023/08/26 17:36:38;;;;;;;8.88;2.72;;;;;;;-145.68;57.40;72324.69;10453437;28;20296;-70
2023/08/26 17:41:39;;;;;;;6.50;3.10;;;;;;;-145.68;58.02;72342.66;10453653;28;20188;-69
2023/08/26 17:46:39;;;;;;;5.72;2.78;;;;;;;-145.68;58.36;72376.63;10453231;28;20299;-70
2023/08/26 17:51:39;;;;;;;5.22;3.10;;;;;;;-145.68;60.24;72400.59;10453176;28;20188;-70
2023/08/26 17:56:40;;;;;;;6.25;3.10;;;;;;;-145.68;60.38;72396.63;10452975;28;20294;-69
2023/08/26 18:01:40;;;;;;;4.68;2.60;;;;;;;-145.68;60.76;72414.59;10452675;28;20188;-70
2023/08/26 18:06:40;;;;;;;5.47;2.95;;;;;;;-145.68;62.11;72432.59;10452386;28;20261;-70
2023/08/26 18:11:41;;;;;;;4.32;3.15;;;;;;;-145.68;64.51;72466.56;10452452;28;20195;-70
2023/08/26 18:16:41;;;;;;;4.57;3.25;;;;;;;-145.68;66.84;72482.53;10452504;28;20298;-70
2023/08/26 18:21:42;;;;;;;3.58;2.65;;;;;;;-145.68;67.61;72534.50;10452242;28;20206;-70
2023/08/26 18:26:42;;;;;;;3.80;2.97;;;;;;;-145.68;70.55;72586.44;10452311;28;20699;-69
2023/08/26 18:31:42;;;;;;;4.25;3.03;;;;;;;-145.68;75.86;72608.44;10452322;28;20563;-71
2023/08/26 18:36:43;;;;;;;7.63;2.80;;;;;;;-145.68;74.16;72604.44;10452048;28;20212;-69
2023/08/26 18:41:43;;;;;;;4.72;2.58;;;;;;;-145.68;74.75;72648.41;10451977;28;20194;-69
2023/08/26 18:46:44;;;;;;;2.78;2.38;;;;;;;-145.68;75.61;72674.38;10451773;28;20212;-70
2023/08/26 18:51:46;;;;;;;3.50;2.70;;;;;;;-145.68;76.33;72688.38;10451856;28;20219;-70
2023/08/26 18:56:46;;;;;;;3.22;2.28;;;;;;;-145.68;77.49;72712.34;10451624;28;20218;-71
2023/08/26 19:01:47;;;;;;;5.18;2.78;;;;;;;-145.68;79.72;72728.34;10451338;28;20207;-70
2023/08/26 19:06:47;;;;;;;6.68;2.90;;;;;;;-145.68;77.71;72750.31;10451563;28;20271;-70
2023/08/26 19:11:47;;;;;;;5.63;2.80;;;;;;;-145.68;84.04;72818.25;10451335;28;20242;-69
2023/08/26 19:16:48;;;;;;;6.85;2.67;;;;;;;-145.68;96.61;72828.25;10439297;22;20621;-66
2023/08/26 19:21:48;;;;;;;8.43;3.80;;;;;;;-145.68;100.00;72916.19;10414566;28;20192;-64
2023/08/26 19:26:50;;;;;;;8.30;3.80;;;;;;;-145.68;100.00;73012.13;10417510;28;20274;-63
2023/08/26 19:31:50;;;;;;;5.45;3.50;;;;;;;-145.68;100.00;73016.13;10406231;28;20188;-63
2023/08/26 19:36:50;;;;;;;8.75;4.13;;;;;;;-145.68;100.00;73040.09;10394179;28;20290;-61
2023/08/26 19:41:51;;;;;;;8.23;4.25;;;;;;;-145.68;100.00;73042.09;10400996;28;20208;-65
2023/08/26 19:46:51;;;;;;;8.52;4.68;;;;;;;-145.68;100.00;73050.09;10380926;28;20219;-65
2023/08/26 19:51:52;;;;;;;8.15;4.95;;;;;;;-145.68;100.00;73068.06;10392505;28;20190;-63
2023/08/26 19:56:53;;;;;;;5.70;4.80;;;;;;;-145.68;100.00;73068.06;10404453;28;20224;-62
2023/08/26 20:01:54;;;;;;;9.90;8.40;;;;;;;-145.68;100.00;73064.09;10416513;28;20310;-63
2023/08/26 20:06:54;;;;;;;10.15;8.02;;;;;;;-145.68;100.00;73086.06;10415589;28;20299;-65
2023/08/26 20:11:54;;;;;;;10.85;6.38;;;;;;;-145.68;100.00;73100.06;10415633;28;20193;-65
2023/08/26 20:16:55;;;;;;;9.02;6.43;;;;;;;-145.68;100.00;73104.06;10430867;28;20232;-64
2023/08/26 20:21:55;;;;;;;10.38;7.65;;;;;;;-145.68;100.00;73124.03;10414832;28;20216;-64
2023/08/26 20:26:56;;;;;;;7.70;6.13;;;;;;;-145.68;100.00;73124.03;10414897;28;21044;-65
2023/08/26 20:31:56;;;;;;;8.88;6.20;;;;;;;-145.68;100.00;73136.03;10414191;28;20250;-66
2023/08/26 20:36:57;;;;;;;8.60;5.43;;;;;;;-145.68;100.00;73124.03;10414917;28;20212;-66
2023/08/26 20:41:58;;;;;;;8.02;5.18;;;;;;;-145.68;100.00;73092.06;10414362;28;20718;-65
2023/08/26 20:46:59;;;;;;;8.20;6.30;;;;;;;-145.68;100.00;73100.06;10414645;28;20682;-64
2023/08/26 20:51:59;;;;;;;7.80;5.32;;;;;;;-145.68;100.00;73096.06;10414140;28;20188;-65
2023/08/26 20:57:00;;;;;;;9.00;5.50;;;;;;;-145.68;100.00;73108.06;10412956;28;20227;-62
2023/08/26 21:02:00;;;;;;;11.48;7.40;;;;;;;-145.68;100.00;73128.03;10413467;28;20221;-62
2023/08/26 21:07:00;;;;;;;8.75;6.70;;;;;;;-145.68;100.00;73164.00;10413033;28;20209;-63
2023/08/26 21:12:01;;;;;;;7.80;6.78;;;;;;;-145.68;100.00;73211.97;10413624;28;20185;-65
2023/08/26 21:17:01;;;;;;;10.15;7.70;;;;;;;-145.68;100.00;73235.97;10412874;28;20613;-63
2023/08/26 21:22:02;;;;;;;12.00;7.82;;;;;;;-145.68;100.00;73235.97;10413283;28;20747;-63
2023/08/26 21:27:02;;;;;;;10.50;7.18;;;;;;;-145.68;100.00;73229.97;10412562;28;20224;-63
2023/08/26 21:32:03;;;;;;;8.27;6.70;;;;;;;-145.68;100.00;73239.97;10412605;28;20188;-62
2023/08/26 21:37:03;;;;;;;9.75;6.20;;;;;;;-145.68;100.00;73231.97;10412597;28;20220;-63
2023/08/26 21:42:04;;;;;;;9.05;6.30;;;;;;;-145.68;100.00;73207.97;10411222;28;20224;-64
2023/08/26 21:47:04;;;;;;;5.90;5.30;;;;;;;-145.68;100.00;73176.00;10412325;28;20243;-65
2023/08/26 21:52:05;;;;;;;12.15;6.55;;;;;;;-145.68;100.00;73203.97;10411907;28;20185;-64
2023/08/26 21:57:05;;;;;;;9.75;6.63;;;;;;;-145.68;100.00;73196.00;10411396;28;20587;-65
2023/08/26 22:02:05;;;;;;;7.60;6.30;;;;;;;-145.68;100.00;73207.97;10411468;28;20228;-65
2023/08/26 22:07:06;;;;;;;10.40;6.57;;;;;;;-145.68;100.00;73215.97;10411341;28;20562;-66
2023/08/26 22:12:07;;;;;;;7.25;6.40;;;;;;;-145.68;100.00;73239.97;10411033;28;20193;-65
2023/08/26 22:17:08;;;;;;;8.07;6.70;;;;;;;-145.68;100.00;73245.97;10410605;28;20259;-65
2023/08/26 22:22:08;;;;;;;8.25;6.40;;;;;;;-145.68;100.00;73273.94;10411148;28;20251;-66
2023/08/26 22:27:09;;;;;;;6.90;6.10;;;;;;;-145.68;100.00;73279.94;10411083;28;20204;-66
2023/08/26 22:32:09;;;;;;;5.85;4.65;;;;;;;-145.68;100.00;73279.94;10411043;28;20184;-65
2023/08/26 22:37:09;;;;;;;9.02;5.68;;;;;;;-145.68;100.00;73305.91;10410667;28;20735;-66